Time;durP1;ratioP1;P1;durP2;ratioP2;P2;SDS_P1;SDS_P2;PMS_P1;PMS_P2;Temp;Humidity;BMP_temperature;BMP_pressure;BME280_temperature;BME280_humidity;BME280_pressure;Samples;Min_cycle;Max_cycle;Signal;HPM_P1;HPM_P2
2023/01/04 00:01:46;;;;;;;4.88;2.05;;;7.30;99.90;;;;;;4950707;28;20500;-65
2023/01/04 00:04:12;;;;;;;7.95;2.03;;;7.20;99.90;;;;;;4950047;28;20119;-64
2023/01/04 00:06:37;;;;;;;4.20;1.80;;;7.30;99.90;;;;;;4949316;28;20065;-64
2023/01/04 00:09:03;;;;;;;9.05;2.10;;;7.30;99.90;;;;;;4934787;29;20078;-65
2023/01/04 00:11:30;;;;;;;6.57;1.98;;;7.30;99.90;;;;;;4966501;28;20083;-64
2023/01/04 00:13:57;;;;;;;4.90;1.70;;;7.30;99.90;;;;;;4947789;29;20050;-65
2023/01/04 00:16:24;;;;;;;4.57;1.75;;;7.30;99.90;;;;;;4950538;29;20051;-64
2023/01/04 00:18:50;;;;;;;5.00;1.75;;;7.20;99.90;;;;;;4934302;29;20130;-66
2023/01/04 00:21:17;;;;;;;9.02;1.95;;;7.30;99.90;;;;;;4950804;28;20498;-65
2023/01/04 00:23:44;;;;;;;5.47;1.90;;;7.30;99.90;;;;;;4934163;29;20410;-64
2023/01/04 00:26:18;;;;;;;8.73;2.10;;;7.30;99.90;;;;;;4934996;29;20062;-64
2023/01/04 00:28:43;;;;;;;5.13;1.80;;;7.20;99.90;;;;;;4950084;29;20051;-64
2023/01/04 00:31:11;;;;;;;6.75;1.83;;;7.20;99.90;;;;;;4932099;29;20048;-64
2023/01/04 00:33:37;;;;;;;7.10;1.60;;;7.20;99.90;;;;;;4934596;29;20047;-64
2023/01/04 00:36:08;;;;;;;6.93;1.77;;;7.20;99.90;;;;;;4934444;29;20590;-63
2023/01/04 00:38:34;;;;;;;5.38;1.73;;;7.20;99.90;;;;;;4934233;29;20059;-64
2023/01/04 00:40:59;;;;;;;7.80;2.00;;;7.30;99.90;;;;;;4934304;29;20497;-65
2023/01/04 00:43:25;;;;;;;5.95;1.50;;;7.30;99.90;;;;;;4965981;28;20090;-64
2023/01/04 00:45:51;;;;;;;4.28;1.50;;;7.30;99.90;;;;;;4933356;29;20063;-64
2023/01/04 00:48:17;;;;;;;4.25;1.98;;;7.30;99.90;;;;;;4945266;28;20723;-64
2023/01/04 00:50:44;;;;;;;6.07;1.98;;;7.30;99.90;;;;;;4950526;28;20071;-64
2023/01/04 00:53:10;;;;;;;4.70;1.95;;;7.30;99.90;;;;;;4966042;28;20047;-64
2023/01/04 00:55:36;;;;;;;8.23;1.98;;;7.30;99.90;;;;;;4934109;29;20062;-64
2023/01/04 00:58:02;;;;;;;5.65;1.63;;;7.30;99.90;;;;;;4949939;29;20376;-65
2023/01/04 01:00:27;;;;;;;7.00;2.33;;;7.30;99.90;;;;;;4950835;28;20051;-64
2023/01/04 01:02:53;;;;;;;7.47;2.03;;;7.30;99.90;;;;;;4951586;28;20356;-64
2023/01/04 01:05:19;;;;;;;4.97;1.88;;;7.30;99.90;;;;;;4949182;28;20051;-64
2023/01/04 01:07:44;;;;;;;7.38;1.90;;;7.30;99.90;;;;;;4950025;28;20055;-65
2023/01/04 01:10:10;;;;;;;4.43;2.00;;;7.30;99.90;;;;;;4951188;28;20485;-64
2023/01/04 01:12:36;;;;;;;3.53;1.50;;;7.30;99.90;;;;;;4951936;29;20054;-64
2023/01/04 01:15:02;;;;;;;5.70;1.90;;;7.30;99.90;;;;;;4950924;28;20477;-64
2023/01/04 01:17:28;;;;;;;8.90;1.48;;;7.30;99.90;;;;;;4962342;28;20552;-63
2023/01/04 01:19:53;;;;;;;6.43;1.80;;;7.20;99.90;;;;;;4956102;28;20366;-64
2023/01/04 01:22:21;;;;;;;9.52;2.50;;;7.30;99.90;;;;;;4923371;29;20047;-63
2023/01/04 01:24:46;;;;;;;6.38;2.20;;;7.30;99.90;;;;;;4986681;28;20062;-64
2023/01/04 01:27:12;;;;;;;6.88;2.03;;;7.30;99.90;;;;;;4955689;29;20043;-66
2023/01/04 01:29:38;;;;;;;6.88;1.77;;;7.20;99.90;;;;;;4939342;29;20054;-64
2023/01/04 01:32:04;;;;;;;7.82;2.08;;;7.30;99.90;;;;;;4953828;29;20118;-64
2023/01/04 01:34:30;;;;;;;6.68;2.30;;;7.20;99.90;;;;;;4937483;29;20047;-64
2023/01/04 01:36:56;;;;;;;6.63;1.75;;;7.20;99.90;;;;;;4952463;29;20051;-63
2023/01/04 01:39:22;;;;;;;6.45;1.70;;;7.20;99.90;;;;;;4952578;28;20126;-65
2023/01/04 01:41:47;;;;;;;6.00;2.05;;;7.20;99.90;;;;;;4952859;28;20134;-64
2023/01/04 01:44:41;;;;;;;6.97;1.90;;;7.20;99.90;;;;;;4953325;28;20126;-64
2023/01/04 01:47:20;;;;;;;6.80;1.67;;;7.30;99.90;;;;;;4952337;29;20059;-64
2023/01/04 01:49:47;;;;;;;5.90;1.90;;;7.20;99.90;;;;;;4948401;28;20071;-64
2023/01/04 01:52:22;;;;;;;4.50;1.77;;;7.20;99.90;;;;;;4937103;29;20073;-65
2023/01/04 01:54:55;;;;;;;5.90;2.20;;;7.20;99.90;;;;;;4953262;28;20054;-65
2023/01/04 01:57:23;;;;;;;6.13;1.88;;;7.10;99.90;;;;;;4981017;28;20054;-64
2023/01/04 01:59:49;;;;;;;7.82;1.90;;;7.10;99.90;;;;;;4937092;29;20425;-65
2023/01/04 02:02:15;;;;;;;5.50;2.22;;;7.20;99.90;;;;;;4965138;28;20067;-65
2023/01/04 02:04:44;;;;;;;4.07;1.95;;;7.10;99.90;;;;;;4953682;28;20113;-65
2023/01/04 02:07:09;;;;;;;;;;;7.20;99.90;;;;;;4953322;28;20043;-64
2023/01/04 02:09:35;;;;;;;5.95;2.30;;;7.20;99.90;;;;;;4953469;29;19925;-66
2023/01/04 02:12:01;;;;;;;7.60;2.00;;;7.10;99.90;;;;;;4935021;29;20267;-64
2023/01/04 02:14:27;;;;;;;4.63;2.03;;;7.20;99.90;;;;;;4953483;28;20077;-65
2023/01/04 02:17:09;;;;;;;10.85;2.42;;;7.20;99.90;;;;;;4936403;29;20380;-64
2023/01/04 02:20:12;;;;;;;9.48;2.42;;;7.20;99.90;;;;;;4937259;29;20082;-64
2023/01/04 02:23:16;;;;;;;4.07;1.70;;;7.20;99.90;;;;;;4953488;29;20046;-65
2023/01/04 02:25:56;;;;;;;6.55;2.50;;;7.20;99.90;;;;;;4953859;28;20121;-64
2023/01/04 02:28:52;;;;;;;5.00;1.90;;;7.20;99.90;;;;;;4948036;28;20051;-65
2023/01/04 02:31:39;;;;;;;7.60;2.20;;;7.20;99.90;;;;;;4948016;29;20098;-66
2023/01/04 02:34:14;;;;;;;4.45;1.90;;;7.20;99.90;;;;;;4965070;28;20043;-64
2023/01/04 02:37:22;;;;;;;4.70;2.03;;;7.10;99.90;;;;;;4951895;29;20047;-65
2023/01/04 02:40:12;;;;;;;3.42;1.77;;;7.10;99.90;;;;;;4916233;29;20143;-64
2023/01/04 02:45:42;;;;;;;6.47;2.00;;;7.20;99.90;;;;;;4984212;28;20130;-65
2023/01/04 02:50:54;;;;;;;8.23;2.53;;;7.20;99.90;;;;;;4938878;29;20077;-64
2023/01/04 02:53:24;;;;;;;6.88;2.53;;;7.20;99.90;;;;;;4935457;29;20070;-64
2023/01/04 02:56:15;;;;;;;6.65;2.08;;;7.20;99.90;;;;;;4937207;28;20039;-64
2023/01/04 02:59:02;;;;;;;7.10;2.20;;;7.20;99.90;;;;;;4952395;29;20058;-63
2023/01/04 03:07:57;;;;;;;8.63;2.63;;;7.20;99.90;;;;;;4949187;29;20051;-63
2023/01/04 03:10:29;;;;;;;6.65;2.42;;;7.30;99.90;;;;;;4937653;29;20051;-65
2023/01/04 03:13:34;;;;;;;6.85;2.30;;;7.30;99.90;;;;;;4948446;28;20039;-64
2023/01/04 03:16:12;;;;;;;4.88;2.40;;;7.40;99.90;;;;;;4944648;29;20055;-64
2023/01/04 03:18:45;;;;;;;;;;;7.40;99.90;;;;;;4935496;29;20078;-65
2023/01/04 03:21:11;;;;;;;9.18;2.95;;;7.40;99.90;;;;;;4964339;28;19910;-64
2023/01/04 03:35:26;;;;;;;;;;;7.50;99.90;;;;;;4952351;29;19925;-64
2023/01/04 03:49:59;;;;;;;6.05;1.90;;;7.80;99.90;;;;;;4967574;28;20049;-64
2023/01/04 03:52:25;;;;;;;8.68;2.30;;;7.80;99.90;;;;;;4969467;28;20079;-64
2023/01/04 03:54:51;;;;;;;8.15;2.30;;;7.80;99.90;;;;;;4935890;29;20113;-64
2023/01/04 03:57:17;;;;;;;6.90;1.83;;;7.80;99.90;;;;;;4951915;29;20499;-65
2023/01/04 03:59:46;;;;;;;6.35;2.22;;;7.80;99.90;;;;;;4932504;29;20756;-65
2023/01/04 04:02:13;;;;;;;4.22;1.83;;;7.80;99.90;;;;;;4935382;29;20441;-64
2023/01/04 04:10:10;;;;;;;6.15;2.03;;;7.90;99.90;;;;;;4936906;29;20433;-64
2023/01/04 04:12:35;;;;;;;5.28;2.00;;;7.90;99.90;;;;;;4950692;28;20122;-64
2023/01/04 04:15:01;;;;;;;6.55;2.50;;;8.00;99.90;;;;;;4933853;29;20106;-65
2023/01/04 04:17:27;;;;;;;6.93;2.10;;;8.10;99.90;;;;;;4934957;29;20043;-64
2023/01/04 04:19:53;;;;;;;7.05;2.10;;;8.00;99.90;;;;;;4934979;29;20054;-64
2023/01/04 04:22:18;;;;;;;5.13;1.88;;;8.00;99.90;;;;;;4950105;29;20496;-64
2023/01/04 04:24:44;;;;;;;5.22;1.95;;;8.00;99.90;;;;;;4950456;29;20058;-65
2023/01/04 04:27:10;;;;;;;10.07;2.42;;;7.90;99.90;;;;;;4934337;28;20055;-63
2023/01/04 04:29:35;;;;;;;5.50;2.10;;;7.90;99.90;;;;;;4966242;28;20047;-65
2023/01/04 04:32:01;;;;;;;4.85;1.90;;;7.80;99.90;;;;;;4934815;29;20074;-66
2023/01/04 04:34:27;;;;;;;4.78;1.77;;;7.70;99.90;;;;;;4934631;29;20074;-65
2023/01/04 04:36:53;;;;;;;8.27;2.50;;;7.70;99.90;;;;;;4966368;28;20051;-65
2023/01/04 04:39:19;;;;;;;6.35;2.30;;;7.60;99.90;;;;;;4950792;28;20050;-67
2023/01/04 04:41:44;;;;;;;9.38;2.90;;;7.60;99.90;;;;;;4950247;29;20122;-66
2023/01/04 04:44:18;;;;;;;6.20;2.30;;;7.60;99.90;;;;;;4934348;29;20517;-65
2023/01/04 04:46:44;;;;;;;5.63;2.47;;;7.60;99.90;;;;;;4932108;29;20129;-64
2023/01/04 04:49:10;;;;;;;6.18;2.00;;;7.60;99.90;;;;;;4950013;29;20102;-66
2023/01/04 04:51:36;;;;;;;8.00;2.22;;;7.60;99.90;;;;;;4945851;28;20043;-65
2023/01/04 04:54:03;;;;;;;5.38;2.05;;;7.60;99.90;;;;;;4949728;28;20051;-65
2023/01/04 04:56:28;;;;;;;7.20;2.28;;;7.60;99.90;;;;;;4950814;28;20085;-65
2023/01/04 04:58:54;;;;;;;4.20;1.80;;;7.60;99.90;;;;;;4935122;29;20604;-65
2023/01/04 05:01:20;;;;;;;7.20;2.30;;;7.70;99.90;;;;;;4951939;28;20082;-64
2023/01/04 05:03:46;;;;;;;6.35;1.90;;;7.70;99.90;;;;;;4934960;29;20138;-65
2023/01/04 05:06:12;;;;;;;10.43;2.25;;;7.60;99.90;;;;;;4966427;28;20059;-65
2023/01/04 05:08:38;;;;;;;11.00;2.70;;;7.60;99.90;;;;;;4951023;28;20286;-66
2023/01/04 05:11:05;;;;;;;6.80;2.17;;;7.60;99.90;;;;;;4934121;29;20063;-67
2023/01/04 05:13:32;;;;;;;5.00;2.10;;;7.60;99.90;;;;;;4933316;29;20134;-66
2023/01/04 05:15:58;;;;;;;7.43;2.40;;;7.50;99.90;;;;;;4934426;29;20047;-67
2023/01/04 05:18:24;;;;;;;7.25;1.98;;;7.50;99.90;;;;;;4949929;29;20047;-68
2023/01/04 05:20:50;;;;;;;5.60;2.20;;;7.50;99.90;;;;;;4933500;29;20541;-67
2023/01/04 05:23:17;;;;;;;6.30;2.10;;;7.50;99.90;;;;;;4949650;29;20374;-68
2023/01/04 05:25:42;;;;;;;5.32;1.95;;;7.50;99.90;;;;;;4964872;28;20047;-67
2023/01/04 05:28:10;;;;;;;10.23;3.20;;;7.50;99.90;;;;;;4948006;28;20050;-67
2023/01/04 05:30:50;;;;;;;7.18;2.08;;;7.50;99.90;;;;;;4949537;29;20106;-68
2023/01/04 05:33:24;;;;;;;3.90;1.90;;;7.40;99.90;;;;;;4935054;28;20076;-68
2023/01/04 05:35:50;;;;;;;6.13;2.53;;;7.40;99.90;;;;;;4933342;28;20470;-67
2023/01/04 05:38:16;;;;;;;9.55;2.42;;;7.30;99.90;;;;;;4949453;28;20058;-67
2023/01/04 05:40:42;;;;;;;9.93;2.08;;;7.40;99.90;;;;;;4948443;28;20393;-67
2023/01/04 05:43:07;;;;;;;8.90;3.25;;;7.40;99.90;;;;;;4933779;29;20461;-68
2023/01/04 05:45:33;;;;;;;7.13;2.53;;;7.40;99.90;;;;;;4933534;29;20051;-68
2023/01/04 05:47:59;;;;;;;6.20;2.58;;;7.50;99.90;;;;;;4949218;28;20039;-68
2023/01/04 05:50:25;;;;;;;6.70;2.53;;;7.50;99.90;;;;;;4949488;28;20039;-70
2023/01/04 05:52:51;;;;;;;5.32;2.00;;;7.40;99.90;;;;;;4948999;29;20126;-69
2023/01/04 05:55:17;;;;;;;9.10;2.25;;;7.50;99.90;;;;;;4929655;29;20054;-67
2023/01/04 05:57:43;;;;;;;5.97;2.22;;;7.50;99.90;;;;;;4949065;28;20051;-68
2023/01/04 06:00:10;;;;;;;6.95;2.35;;;7.50;99.90;;;;;;4932953;29;20039;-69
2023/01/04 06:02:35;;;;;;;6.03;2.35;;;7.60;99.90;;;;;;4933427;28;20117;-67
2023/01/04 06:05:01;;;;;;;6.80;2.38;;;7.60;99.90;;;;;;4936911;28;20134;-68
2023/01/04 06:07:28;;;;;;;5.88;1.95;;;7.60;99.90;;;;;;4949728;28;20052;-67
2023/01/04 06:09:53;;;;;;;5.90;2.40;;;7.60;99.90;;;;;;4952747;29;20091;-70
2023/01/04 06:12:19;;;;;;;6.93;2.15;;;7.60;99.90;;;;;;4936801;29;20146;-68
2023/01/04 06:14:46;;;;;;;4.85;1.90;;;7.70;99.90;;;;;;4936786;29;20058;-69
2023/01/04 06:17:12;;;;;;;5.28;2.50;;;7.70;99.90;;;;;;4935804;29;20430;-70
2023/01/04 06:19:38;;;;;;;6.03;2.35;;;7.70;99.90;;;;;;4951597;29;20141;-67
2023/01/04 06:22:03;;;;;;;4.97;1.95;;;7.80;99.90;;;;;;4954970;28;20055;-68
2023/01/04 06:24:29;;;;;;;4.88;2.00;;;7.80;99.90;;;;;;4954561;29;20074;-67
2023/01/04 06:26:55;;;;;;;5.28;2.20;;;7.70;99.90;;;;;;4952327;29;20489;-68
2023/01/04 06:29:22;;;;;;;4.70;2.50;;;7.80;99.90;;;;;;4951166;28;20051;-65
2023/01/04 06:31:47;;;;;;;6.22;2.60;;;7.60;99.90;;;;;;4952200;28;20138;-64
2023/01/04 06:34:13;;;;;;;7.68;2.50;;;7.70;99.90;;;;;;4984935;28;20125;-67
2023/01/04 06:36:39;;;;;;;5.90;2.95;;;7.70;99.90;;;;;;4968651;28;20478;-67
2023/01/04 06:39:08;;;;;;;6.47;2.72;;;7.70;99.90;;;;;;4952139;29;20127;-66
2023/01/04 06:41:34;;;;;;;8.98;2.53;;;7.60;99.90;;;;;;4952252;28;20481;-66
2023/01/04 06:44:00;;;;;;;6.40;2.50;;;7.70;99.90;;;;;;4951426;29;20120;-65
2023/01/04 06:46:25;;;;;;;4.88;2.53;;;7.70;99.90;;;;;;4935796;29;20500;-66
2023/01/04 06:48:52;;;;;;;6.53;3.10;;;7.60;99.90;;;;;;4935930;29;20122;-65
2023/01/04 06:51:19;;;;;;;7.47;2.60;;;7.70;99.90;;;;;;4935727;28;20087;-64
2023/01/04 06:53:44;;;;;;;4.40;2.33;;;7.70;99.90;;;;;;4936390;29;20117;-65
2023/01/04 06:56:10;;;;;;;6.78;2.65;;;7.80;99.90;;;;;;4951865;28;20063;-65
2023/01/04 06:58:36;;;;;;;11.55;2.92;;;7.70;99.90;;;;;;4935736;29;20055;-65
2023/01/04 07:01:02;;;;;;;4.18;2.40;;;7.80;99.90;;;;;;4933472;29;20149;-66
2023/01/04 07:03:27;;;;;;;4.03;2.50;;;7.80;99.90;;;;;;4952383;28;20103;-69
2023/01/04 07:05:53;;;;;;;6.75;2.47;;;7.80;99.90;;;;;;4936176;29;20102;-64
2023/01/04 07:08:19;;;;;;;6.07;2.80;;;7.80;99.90;;;;;;4936489;29;20047;-64
2023/01/04 07:10:45;;;;;;;6.00;3.15;;;7.90;99.90;;;;;;4946708;28;21255;-67
2023/01/04 07:13:11;;;;;;;5.45;2.80;;;8.00;99.90;;;;;;4954557;28;20042;-67
2023/01/04 07:15:36;;;;;;;5.25;2.80;;;8.00;99.90;;;;;;4932533;28;20057;-67
2023/01/04 07:18:03;;;;;;;5.10;2.55;;;8.00;99.90;;;;;;4955072;28;20055;-65
2023/01/04 07:20:29;;;;;;;5.63;2.65;;;8.00;99.90;;;;;;4938048;28;20051;-64
2023/01/04 07:22:58;;;;;;;8.55;2.83;;;8.00;99.90;;;;;;4952617;29;20047;-65
2023/01/04 07:25:24;;;;;;;4.80;2.58;;;8.10;99.90;;;;;;4937994;28;20141;-64
2023/01/04 07:27:53;;;;;;;5.65;2.70;;;8.10;99.90;;;;;;4952830;28;20180;-64
2023/01/04 07:30:19;;;;;;;5.78;3.10;;;8.10;99.90;;;;;;4933982;29;20067;-68
2023/01/04 07:32:45;;;;;;;8.02;3.13;;;8.10;99.90;;;;;;4935665;28;20043;-64
2023/01/04 07:35:11;;;;;;;5.47;2.40;;;8.10;99.90;;;;;;4951156;28;20106;-63
2023/01/04 07:37:37;;;;;;;5.75;2.88;;;8.10;99.90;;;;;;4950844;28;20575;-64
2023/01/04 07:40:03;;;;;;;7.07;2.78;;;8.20;99.90;;;;;;4935456;29;20051;-63
2023/01/04 07:42:29;;;;;;;5.32;2.70;;;8.20;99.90;;;;;;4967701;28;20047;-62
2023/01/04 07:44:55;;;;;;;8.38;2.95;;;8.20;99.90;;;;;;4950235;29;20170;-63
2023/01/04 07:47:21;;;;;;;5.20;2.95;;;8.20;99.90;;;;;;4946694;28;20118;-63
2023/01/04 07:49:48;;;;;;;7.45;3.60;;;8.20;99.90;;;;;;4948611;28;20043;-64
2023/01/04 07:52:15;;;;;;;14.05;3.22;;;8.30;99.90;;;;;;4934724;28;20051;-62
2023/01/04 07:54:41;;;;;;;8.98;4.88;;;8.30;99.90;;;;;;4977607;28;20113;-62
2023/01/04 07:57:07;;;;;;;13.90;7.22;;;8.30;99.90;;;;;;4951147;29;20770;-63
2023/01/04 07:59:33;;;;;;;9.95;5.80;;;8.30;99.90;;;;;;4950101;28;20465;-62
2023/01/04 08:01:58;;;;;;;9.70;5.13;;;8.30;99.90;;;;;;4947468;29;20378;-62
2023/01/04 08:04:24;;;;;;;8.88;4.30;;;8.30;99.90;;;;;;4933531;29;20051;-63
2023/01/04 08:06:50;;;;;;;5.25;2.90;;;8.40;99.90;;;;;;4918802;29;20118;-62
2023/01/04 08:09:16;;;;;;;7.20;3.10;;;8.40;99.90;;;;;;4961470;28;20768;-63
2023/01/04 08:11:43;;;;;;;8.57;3.13;;;8.40;99.90;;;;;;4959078;28;20058;-63
2023/01/04 08:14:09;;;;;;;5.15;2.85;;;8.30;99.90;;;;;;4951336;28;20842;-63
2023/01/04 08:16:36;;;;;;;5.15;2.50;;;8.30;99.90;;;;;;4951795;28;20069;-63
2023/01/04 08:19:14;;;;;;;5.15;3.15;;;8.40;99.90;;;;;;4953439;28;20089;-64
2023/01/04 08:21:41;;;;;;;4.97;2.40;;;8.30;99.90;;;;;;4934632;29;20091;-64
2023/01/04 08:24:06;;;;;;;7.35;3.80;;;8.30;99.90;;;;;;4946692;29;20043;-64
2023/01/04 08:26:32;;;;;;;8.73;2.97;;;8.30;99.90;;;;;;4950143;28;20381;-63
2023/01/04 08:28:58;;;;;;;5.25;3.03;;;8.30;99.90;;;;;;4930790;29;20765;-63
2023/01/04 08:31:26;;;;;;;5.05;2.70;;;8.40;99.90;;;;;;4934332;29;20053;-63
2023/01/04 08:33:52;;;;;;;6.07;3.35;;;8.30;99.90;;;;;;4934853;29;20532;-64
2023/01/04 08:36:25;;;;;;;7.90;2.95;;;8.30;99.90;;;;;;4933252;29;20047;-64
2023/01/04 08:38:54;;;;;;;6.40;2.85;;;8.40;99.90;;;;;;4964917;28;20051;-64
2023/01/04 08:41:20;;;;;;;5.10;2.85;;;8.40;99.90;;;;;;4950502;29;20058;-63
2023/01/04 08:43:45;;;;;;;8.02;3.08;;;8.30;99.90;;;;;;4966979;28;20046;-63
2023/01/04 08:46:13;;;;;;;5.60;2.50;;;8.40;99.90;;;;;;4935513;29;20453;-63
2023/01/04 08:48:39;;;;;;;5.90;3.00;;;8.40;99.90;;;;;;4952595;29;20090;-65
2023/01/04 08:51:06;;;;;;;4.63;2.83;;;8.40;99.90;;;;;;4950344;29;20462;-63
2023/01/04 08:53:32;;;;;;;6.15;2.80;;;8.40;99.90;;;;;;4917808;29;20047;-65
2023/01/04 08:55:59;;;;;;;5.03;3.17;;;8.40;99.90;;;;;;4966775;28;20124;-65
2023/01/04 08:58:26;;;;;;;5.97;2.77;;;8.30;99.90;;;;;;4951715;28;20047;-64
2023/01/04 09:00:52;;;;;;;5.95;3.10;;;8.40;99.90;;;;;;4934750;29;20071;-63
2023/01/04 09:03:18;;;;;;;6.07;2.95;;;8.40;99.90;;;;;;4933861;28;20063;-65
2023/01/04 09:05:45;;;;;;;7.85;3.30;;;8.40;99.90;;;;;;4933253;29;20075;-63
2023/01/04 09:08:10;;;;;;;4.65;3.10;;;8.40;99.90;;;;;;4964340;28;20319;-62
2023/01/04 09:10:39;;;;;;;6.13;3.33;;;8.40;99.90;;;;;;4927793;29;20051;-63
2023/01/04 09:13:05;;;;;;;7.13;3.75;;;8.40;99.90;;;;;;4948873;28;20453;-63
2023/01/04 09:15:32;;;;;;;4.68;2.92;;;8.40;99.90;;;;;;4938866;29;20043;-64
2023/01/04 09:17:58;;;;;;;5.22;2.95;;;8.40;99.90;;;;;;4950361;29;20433;-62
2023/01/04 09:20:23;;;;;;;4.13;2.28;;;8.40;99.90;;;;;;4948604;29;20050;-63
2023/01/04 09:22:51;;;;;;;7.18;2.60;;;8.40;99.90;;;;;;4944588;29;20043;-64
2023/01/04 09:25:17;;;;;;;4.35;2.30;;;8.40;99.90;;;;;;4948731;29;20054;-63
2023/01/04 09:27:43;;;;;;;7.25;2.83;;;8.50;99.90;;;;;;4949613;29;20047;-63
2023/01/04 09:30:12;;;;;;;7.53;2.92;;;8.50;99.90;;;;;;4933911;29;20054;-62
2023/01/04 09:32:38;;;;;;;6.28;3.28;;;8.50;99.90;;;;;;4960451;28;20058;-63
2023/01/04 09:35:04;;;;;;;5.15;3.30;;;8.30;99.90;;;;;;4946441;28;20055;-63
2023/01/04 09:37:30;;;;;;;7.13;3.45;;;8.30;99.90;;;;;;4942662;28;20078;-64
2023/01/04 09:39:56;;;;;;;6.50;3.28;;;8.20;99.90;;;;;;4953183;28;20051;-65
2023/01/04 09:42:28;;;;;;;6.38;3.70;;;8.20;99.90;;;;;;4936147;29;20047;-65
2023/01/04 09:45:00;;;;;;;5.90;2.88;;;8.10;99.90;;;;;;4936609;28;20079;-66
2023/01/04 09:48:02;;;;;;;4.10;2.80;;;8.10;99.90;;;;;;4937733;29;20473;-65
2023/01/04 09:50:34;;;;;;;5.80;3.15;;;8.10;99.90;;;;;;4946657;29;20047;-66
2023/01/04 09:53:10;;;;;;;6.75;3.40;;;8.10;99.90;;;;;;4950693;28;20054;-64
2023/01/04 09:55:44;;;;;;;5.03;2.95;;;8.10;99.90;;;;;;4932440;29;20043;-65
2023/01/04 09:58:31;;;;;;;7.68;3.55;;;8.10;99.90;;;;;;4938370;28;20054;-64
2023/01/04 10:01:17;;;;;;;6.17;3.27;;;8.10;99.90;;;;;;4953347;28;20121;-65
2023/01/04 10:03:49;;;;;;;5.13;2.70;;;8.10;99.90;;;;;;4952649;29;20049;-66
2023/01/04 10:06:15;;;;;;;7.43;3.28;;;8.20;99.90;;;;;;4953632;29;20499;-65
2023/01/04 10:08:41;;;;;;;5.28;2.92;;;8.30;99.90;;;;;;4937010;29;20130;-64
2023/01/04 10:11:26;;;;;;;4.93;2.80;;;8.30;99.90;;;;;;4969497;28;20135;-64
2023/01/04 10:14:16;;;;;;;5.05;3.15;;;8.40;99.90;;;;;;4953575;28;20070;-63
2023/01/04 10:17:07;;;;;;;4.82;2.72;;;8.40;99.90;;;;;;4952597;29;20054;-63
2023/01/04 10:19:36;;;;;;;6.03;2.65;;;8.50;99.90;;;;;;4954219;29;20373;-65
2023/01/04 10:22:13;;;;;;;6.90;2.78;;;8.50;99.90;;;;;;4950283;29;20058;-64
2023/01/04 10:24:51;;;;;;;4.43;2.65;;;8.60;99.90;;;;;;4961534;28;20125;-63
2023/01/04 10:27:20;;;;;;;;;;;8.50;99.90;;;;;;4951981;28;20102;-65
2023/01/04 10:30:24;;;;;;;4.85;2.67;;;8.60;99.90;;;;;;4953124;28;19968;-62
2023/01/04 10:33:08;;;;;;;5.13;2.70;;;8.60;99.90;;;;;;4943982;28;20074;-63
2023/01/04 10:35:36;;;;;;;5.63;2.50;;;8.70;99.90;;;;;;4952376;29;20066;-62
2023/01/04 10:38:03;;;;;;;3.65;2.20;;;8.70;99.90;;;;;;4938412;29;20138;-62
2023/01/04 10:40:33;;;;;;;4.80;2.63;;;8.70;99.90;;;;;;4950839;28;20136;-63
2023/01/04 10:43:24;;;;;;;4.93;2.30;;;8.70;99.90;;;;;;4936514;29;20142;-63
2023/01/04 10:46:16;;;;;;;4.28;2.10;;;8.70;99.90;;;;;;4954029;28;20138;-62
2023/01/04 10:49:16;;;;;;;4.75;2.53;;;8.70;99.90;;;;;;4948987;28;20086;-63
2023/01/04 10:51:57;;;;;;;4.28;2.40;;;8.80;99.90;;;;;;4954542;28;20079;-63
2023/01/04 10:54:35;;;;;;;3.25;2.00;;;8.80;99.90;;;;;;4954677;28;20043;-62
2023/01/04 10:57:14;;;;;;;3.63;2.30;;;8.80;99.90;;;;;;4953021;29;20047;-63
2023/01/04 10:59:51;;;;;;;3.80;2.28;;;8.90;99.90;;;;;;4937600;28;20362;-65
2023/01/04 11:02:26;;;;;;;3.47;2.20;;;8.90;99.90;;;;;;4950975;28;20116;-65
2023/01/04 11:04:57;;;;;;;4.18;2.20;;;8.90;99.90;;;;;;4932564;29;20044;-64
2023/01/04 11:07:48;;;;;;;7.68;2.25;;;9.00;99.90;;;;;;4967377;28;20047;-64
2023/01/04 11:10:27;;;;;;;3.90;2.65;;;8.90;99.90;;;;;;4948336;29;20051;-63
2023/01/04 11:12:53;;;;;;;7.72;2.97;;;8.80;99.90;;;;;;4952389;28;20119;-62
2023/01/04 11:15:19;;;;;;;7.40;2.60;;;8.90;99.90;;;;;;4931901;29;20441;-62
2023/01/04 11:17:44;;;;;;;6.72;2.53;;;8.90;99.90;;;;;;4937538;29;20059;-63
2023/01/04 11:20:10;;;;;;;3.85;2.30;;;8.80;99.90;;;;;;4969386;28;20058;-63
2023/01/04 11:22:56;;;;;;;5.20;2.83;;;8.80;99.90;;;;;;4951284;28;20055;-63
2023/01/04 11:25:22;;;;;;;5.95;2.83;;;8.70;99.90;;;;;;4950808;29;20051;-66
2023/01/04 11:27:55;;;;;;;5.03;2.50;;;8.50;99.90;;;;;;4935373;29;20099;-67
2023/01/04 11:30:22;;;;;;;6.07;3.10;;;8.50;99.90;;;;;;4934818;29;20043;-66
2023/01/04 11:33:07;;;;;;;6.73;2.87;;;8.40;99.90;;;;;;4951818;28;20469;-65
2023/01/04 11:35:37;;;;;;;5.40;2.55;;;8.30;99.90;;;;;;4966788;28;20388;-64
2023/01/04 11:38:13;;;;;;;4.60;2.58;;;8.40;99.90;;;;;;4951160;28;20483;-65
2023/01/04 11:40:40;;;;;;;5.07;2.47;;;8.40;99.90;;;;;;4951910;28;20046;-64
2023/01/04 11:43:16;;;;;;;4.45;2.95;;;8.40;99.90;;;;;;4962727;28;20508;-64
2023/01/04 11:45:52;;;;;;;6.68;3.15;;;8.40;99.90;;;;;;4947560;28;20043;-63
2023/01/04 11:48:19;;;;;;;5.38;2.85;;;8.40;99.90;;;;;;4946991;28;20071;-66
2023/01/04 11:50:46;;;;;;;8.43;2.63;;;8.50;99.90;;;;;;4931785;29;20046;-65
2023/01/04 11:53:41;;;;;;;5.80;2.53;;;8.50;99.90;;;;;;4965239;28;20050;-68
2023/01/04 11:56:21;;;;;;;3.67;2.30;;;8.60;99.90;;;;;;4969335;28;20154;-72
2023/01/04 11:59:07;;;;;;;3.03;2.03;;;8.60;99.90;;;;;;4935539;29;20043;-70
2023/01/04 12:01:36;;;;;;;4.65;2.53;;;8.70;99.90;;;;;;4947555;28;20055;-68
2023/01/04 12:04:03;;;;;;;12.10;2.22;;;8.70;99.90;;;;;;4931318;29;20070;-64
2023/01/04 12:06:30;;;;;;;4.75;2.30;;;8.70;99.90;;;;;;4950548;29;20054;-71
2023/01/04 12:08:56;;;;;;;3.47;2.35;;;8.70;99.90;;;;;;4951524;29;20548;-70
2023/01/04 12:11:28;;;;;;;3.47;1.90;;;8.70;99.90;;;;;;4948878;29;20055;-65
2023/01/04 12:13:53;;;;;;;4.35;2.47;;;8.70;99.90;;;;;;4950539;28;20101;-68
2023/01/04 12:16:43;;;;;;;2.70;2.10;;;8.70;99.90;;;;;;4950511;28;20623;-69
2023/01/04 12:19:14;;;;;;;8.20;2.25;;;8.70;99.90;;;;;;4950275;29;20553;-64
2023/01/04 12:21:39;;;;;;;5.93;3.22;;;8.80;99.90;;;;;;4934840;29;20062;-71
2023/01/04 12:24:05;;;;;;;6.10;3.05;;;8.80;99.90;;;;;;4930681;28;20390;-73
2023/01/04 12:26:32;;;;;;;3.30;2.20;;;8.70;99.90;;;;;;4946204;29;20213;-73
2023/01/04 12:29:21;;;;;;;4.15;2.28;;;8.70;99.90;;;;;;4950503;29;20114;-74
2023/01/04 12:31:50;;;;;;;2.65;1.90;;;8.70;99.90;;;;;;4981308;28;20073;-73
2023/01/04 12:34:22;;;;;;;3.30;2.03;;;8.70;99.90;;;;;;4936129;29;20378;-74
2023/01/04 12:36:51;;;;;;;3.80;1.75;;;8.70;99.90;;;;;;4950760;28;20492;-72
2023/01/04 12:39:21;;;;;;;3.53;1.80;;;8.80;99.90;;;;;;4951061;29;20062;-73
2023/01/04 12:41:59;;;;;;;2.80;2.10;;;8.80;99.90;;;;;;4951117;28;20050;-72
2023/01/04 12:44:45;;;;;;;3.50;2.00;;;8.80;99.90;;;;;;4949985;29;20047;-74
2023/01/04 12:50:07;;;;;;;2.65;1.73;;;8.80;99.90;;;;;;4948826;29;20046;-74
2023/01/04 12:52:32;;;;;;;2.88;1.67;;;8.90;99.90;;;;;;4966892;28;20050;-73
2023/01/04 12:55:00;;;;;;;3.28;1.60;;;8.90;99.90;;;;;;4951549;29;20434;-73
2023/01/04 12:57:36;;;;;;;3.22;1.60;;;8.90;99.90;;;;;;4949903;29;20427;-72
2023/01/04 13:00:04;;;;;;;3.22;1.63;;;8.80;99.90;;;;;;4934904;29;20050;-72
2023/01/04 13:02:42;;;;;;;4.82;1.60;;;8.80;99.90;;;;;;4915991;29;20118;-73
2023/01/04 13:05:17;;;;;;;;;;;8.90;99.90;;;;;;4932706;29;20048;-73
2023/01/04 13:07:49;;;;;;;3.25;1.88;;;8.90;99.90;;;;;;4960850;28;20339;-73
2023/01/04 13:10:29;;;;;;;2.70;1.80;;;8.90;99.90;;;;;;4947972;29;20118;-72
2023/01/04 13:13:22;;;;;;;2.60;1.48;;;8.90;99.90;;;;;;4961325;28;20043;-73
2023/01/04 13:16:02;;;;;;;3.17;1.40;;;9.00;99.90;;;;;;4967126;28;20051;-72
2023/01/04 13:18:28;;;;;;;2.55;1.42;;;9.00;99.90;;;;;;4953504;29;20050;-73
2023/01/04 13:20:56;;;;;;;2.40;1.42;;;9.00;99.90;;;;;;4939307;28;20039;-73
2023/01/04 13:23:23;;;;;;;2.25;1.50;;;9.00;99.90;;;;;;4938553;29;20109;-73
2023/01/04 13:25:49;;;;;;;3.92;1.58;;;9.00;99.90;;;;;;4938318;28;20050;-72
2023/01/04 13:28:18;;;;;;;2.70;1.75;;;9.10;99.90;;;;;;4954980;28;20057;-73
2023/01/04 13:30:46;;;;;;;3.67;1.92;;;9.10;99.90;;;;;;4955794;28;20039;-76
2023/01/04 13:33:19;;;;;;;2.22;1.40;;;9.10;99.90;;;;;;4952185;28;20425;-74
2023/01/04 13:36:09;;;;;;;2.08;1.30;;;9.10;99.90;;;;;;4959057;28;20069;-74
2023/01/04 13:38:35;;;;;;;2.85;1.48;;;9.10;99.90;;;;;;4971230;28;20097;-73
2023/01/04 13:41:01;;;;;;;2.05;1.40;;;9.10;99.90;;;;;;4955897;28;20747;-73
2023/01/04 13:43:53;;;;;;;2.63;1.13;;;9.20;99.90;;;;;;4925353;29;20047;-72
2023/01/04 13:46:22;;;;;;;2.13;1.20;;;9.20;99.90;;;;;;4959821;28;20043;-73
2023/01/04 13:48:49;;;;;;;1.67;1.15;;;9.20;99.90;;;;;;4955214;28;20047;-73
2023/01/04 13:51:28;;;;;;;1.93;1.20;;;9.20;99.90;;;;;;4956947;28;20047;-73
2023/01/04 13:53:54;;;;;;;;;;;9.20;99.90;;;;;;4955468;28;20043;-72
2023/01/04 13:56:22;;;;;;;1.33;1.10;;;9.20;99.90;;;;;;4954616;28;20907;-72
2023/01/04 13:58:48;;;;;;;;;;;9.20;99.90;;;;;;4939266;29;20055;-73